sensor_id;sensor_type;location;lat;lon;timestamp;P1;durP1;ratioP1;P2;durP2;ratioP2
4831;SDS011;2430;51.322;7.864;2022-07-23T00:00:03;3.13;;;2.83;;
4831;SDS011;2430;51.322;7.864;2022-07-23T00:02:30;5.30;;;3.57;;
4831;SDS011;2430;51.322;7.864;2022-07-23T00:04:57;6.93;;;3.60;;
4831;SDS011;2430;51.322;7.864;2022-07-23T00:07:23;3.60;;;3.13;;
4831;SDS011;2430;51.322;7.864;2022-07-23T00:09:51;5.90;;;3.57;;
4831;SDS011;2430;51.322;7.864;2022-07-23T00:12:18;8.40;;;4.97;;
4831;SDS011;2430;51.322;7.864;2022-07-23T00:14:44;12.50;;;5.43;;
4831;SDS011;2430;51.322;7.864;2022-07-23T00:17:11;6.97;;;4.73;;
4831;SDS011;2430;51.322;7.864;2022-07-23T00:19:37;7.03;;;4.20;;
4831;SDS011;2430;51.322;7.864;2022-07-23T00:22:04;4.93;;;4.17;;
4831;SDS011;2430;51.322;7.864;2022-07-23T00:24:30;4.50;;;3.70;;
4831;SDS011;2430;51.322;7.864;2022-07-23T00:26:58;3.90;;;3.07;;
4831;SDS011;2430;51.322;7.864;2022-07-23T00:29:25;5.80;;;3.40;;
4831;SDS011;2430;51.322;7.864;2022-07-23T00:31:51;6.97;;;5.37;;
4831;SDS011;2430;51.322;7.864;2022-07-23T00:34:18;5.27;;;4.27;;
4831;SDS011;2430;51.322;7.864;2022-07-23T00:36:44;11.70;;;4.00;;
4831;SDS011;2430;51.322;7.864;2022-07-23T00:39:11;8.70;;;5.33;;
4831;SDS011;2430;51.322;7.864;2022-07-23T00:41:37;9.63;;;6.10;;
4831;SDS011;2430;51.322;7.864;2022-07-23T00:44:18;5.50;;;4.83;;
4831;SDS011;2430;51.322;7.864;2022-07-23T00:46:46;5.73;;;4.33;;
4831;SDS011;2430;51.322;7.864;2022-07-23T00:49:12;6.17;;;3.97;;
4831;SDS011;2430;51.322;7.864;2022-07-23T00:51:39;4.83;;;4.30;;
4831;SDS011;2430;51.322;7.864;2022-07-23T00:54:05;10.30;;;5.30;;
4831;SDS011;2430;51.322;7.864;2022-07-23T00:56:32;10.13;;;5.20;;
4831;SDS011;2430;51.322;7.864;2022-07-23T00:58:59;5.43;;;4.37;;
4831;SDS011;2430;51.322;7.864;2022-07-23T01:01:28;5.97;;;5.43;;
4831;SDS011;2430;51.322;7.864;2022-07-23T01:03:54;4.60;;;4.27;;
4831;SDS011;2430;51.322;7.864;2022-07-23T01:06:21;11.60;;;5.87;;
4831;SDS011;2430;51.322;7.864;2022-07-23T01:08:47;7.30;;;5.57;;
4831;SDS011;2430;51.322;7.864;2022-07-23T01:11:14;6.90;;;5.00;;
4831;SDS011;2430;51.322;7.864;2022-07-23T01:13:40;8.10;;;5.40;;
4831;SDS011;2430;51.322;7.864;2022-07-23T01:16:07;11.03;;;6.67;;
4831;SDS011;2430;51.322;7.864;2022-07-23T01:18:35;12.63;;;4.60;;
4831;SDS011;2430;51.322;7.864;2022-07-23T01:21:02;7.97;;;6.77;;
4831;SDS011;2430;51.322;7.864;2022-07-23T01:23:29;7.00;;;5.17;;
4831;SDS011;2430;51.322;7.864;2022-07-23T01:25:56;7.43;;;5.37;;
4831;SDS011;2430;51.322;7.864;2022-07-23T01:28:22;5.60;;;5.10;;
4831;SDS011;2430;51.322;7.864;2022-07-23T01:30:49;9.00;;;6.03;;
4831;SDS011;2430;51.322;7.864;2022-07-23T01:33:16;7.77;;;6.70;;
4831;SDS011;2430;51.322;7.864;2022-07-23T01:35:42;10.03;;;5.93;;
4831;SDS011;2430;51.322;7.864;2022-07-23T01:38:09;7.20;;;4.93;;
4831;SDS011;2430;51.322;7.864;2022-07-23T01:40:37;8.63;;;5.60;;
4831;SDS011;2430;51.322;7.864;2022-07-23T01:43:03;7.17;;;5.60;;
4831;SDS011;2430;51.322;7.864;2022-07-23T01:45:30;6.13;;;5.23;;
4831;SDS011;2430;51.322;7.864;2022-07-23T01:47:56;15.90;;;5.43;;
4831;SDS011;2430;51.322;7.864;2022-07-23T01:50:23;7.37;;;5.40;;
4831;SDS011;2430;51.322;7.864;2022-07-23T01:52:49;12.67;;;7.00;;
4831;SDS011;2430;51.322;7.864;2022-07-23T01:55:16;7.93;;;6.47;;
4831;SDS011;2430;51.322;7.864;2022-07-23T01:57:44;5.50;;;5.00;;
4831;SDS011;2430;51.322;7.864;2022-07-23T02:00:10;14.87;;;6.30;;
4831;SDS011;2430;51.322;7.864;2022-07-23T02:02:37;5.07;;;4.57;;
4831;SDS011;2430;51.322;7.864;2022-07-23T02:05:04;8.60;;;6.50;;
4831;SDS011;2430;51.322;7.864;2022-07-23T02:07:31;13.53;;;5.90;;
4831;SDS011;2430;51.322;7.864;2022-07-23T02:09:57;17.70;;;5.83;;
4831;SDS011;2430;51.322;7.864;2022-07-23T02:12:24;28.93;;;6.73;;
4831;SDS011;2430;51.322;7.864;2022-07-23T02:14:52;7.73;;;5.90;;
4831;SDS011;2430;51.322;7.864;2022-07-23T02:17:18;8.77;;;5.87;;
4831;SDS011;2430;51.322;7.864;2022-07-23T02:19:45;6.97;;;4.80;;
4831;SDS011;2430;51.322;7.864;2022-07-23T02:22:11;9.63;;;6.70;;
4831;SDS011;2430;51.322;7.864;2022-07-23T02:24:38;6.73;;;4.50;;
4831;SDS011;2430;51.322;7.864;2022-07-23T02:27:04;10.27;;;6.50;;
4831;SDS011;2430;51.322;7.864;2022-07-23T02:29:31;6.27;;;5.67;;
4831;SDS011;2430;51.322;7.864;2022-07-23T02:31:59;11.60;;;6.23;;
4831;SDS011;2430;51.322;7.864;2022-07-23T02:34:25;16.60;;;4.50;;
4831;SDS011;2430;51.322;7.864;2022-07-23T02:36:52;6.03;;;5.43;;
4831;SDS011;2430;51.322;7.864;2022-07-23T02:39:18;9.83;;;7.40;;
4831;SDS011;2430;51.322;7.864;2022-07-23T02:41:45;9.60;;;5.87;;
4831;SDS011;2430;51.322;7.864;2022-07-23T02:44:11;8.47;;;5.73;;
4831;SDS011;2430;51.322;7.864;2022-07-23T02:46:38;6.50;;;5.53;;
4831;SDS011;2430;51.322;7.864;2022-07-23T02:49:06;7.83;;;5.50;;
4831;SDS011;2430;51.322;7.864;2022-07-23T02:51:32;7.70;;;4.63;;
4831;SDS011;2430;51.322;7.864;2022-07-23T02:53:59;6.33;;;4.90;;
4831;SDS011;2430;51.322;7.864;2022-07-23T02:56:25;8.30;;;5.73;;
4831;SDS011;2430;51.322;7.864;2022-07-23T02:58:52;6.90;;;5.77;;
4831;SDS011;2430;51.322;7.864;2022-07-23T03:01:18;10.10;;;6.40;;
4831;SDS011;2430;51.322;7.864;2022-07-23T03:03:45;6.37;;;4.77;;
4831;SDS011;2430;51.322;7.864;2022-07-23T03:06:13;6.20;;;5.60;;
4831;SDS011;2430;51.322;7.864;2022-07-23T03:08:40;7.93;;;5.13;;
4831;SDS011;2430;51.322;7.864;2022-07-23T03:11:07;12.40;;;6.70;;
4831;SDS011;2430;51.322;7.864;2022-07-23T03:13:36;7.20;;;4.80;;
4831;SDS011;2430;51.322;7.864;2022-07-23T03:16:02;4.23;;;3.83;;
4831;SDS011;2430;51.322;7.864;2022-07-23T03:18:29;6.33;;;4.00;;
4831;SDS011;2430;51.322;7.864;2022-07-23T03:20:56;9.47;;;6.20;;
4831;SDS011;2430;51.322;7.864;2022-07-23T03:23:24;9.40;;;5.30;;
4831;SDS011;2430;51.322;7.864;2022-07-23T03:25:51;9.17;;;6.17;;
4831;SDS011;2430;51.322;7.864;2022-07-23T03:28:18;9.93;;;6.40;;
4831;SDS011;2430;51.322;7.864;2022-07-23T03:30:46;6.40;;;4.60;;
4831;SDS011;2430;51.322;7.864;2022-07-23T03:33:13;5.43;;;4.00;;
4831;SDS011;2430;51.322;7.864;2022-07-23T03:35:41;10.20;;;5.23;;
4831;SDS011;2430;51.322;7.864;2022-07-23T03:38:08;6.07;;;4.60;;
4831;SDS011;2430;51.322;7.864;2022-07-23T03:40:37;6.20;;;4.00;;
4831;SDS011;2430;51.322;7.864;2022-07-23T03:43:04;6.07;;;4.57;;
4831;SDS011;2430;51.322;7.864;2022-07-23T03:45:31;7.00;;;4.23;;
4831;SDS011;2430;51.322;7.864;2022-07-23T03:47:58;7.10;;;4.20;;
4831;SDS011;2430;51.322;7.864;2022-07-23T03:50:25;5.20;;;4.70;;
4831;SDS011;2430;51.322;7.864;2022-07-23T03:52:52;5.40;;;4.70;;
4831;SDS011;2430;51.322;7.864;2022-07-23T03:55:19;5.20;;;3.17;;
4831;SDS011;2430;51.322;7.864;2022-07-23T03:57:51;6.00;;;4.37;;
4831;SDS011;2430;51.322;7.864;2022-07-23T04:00:18;4.37;;;3.97;;
4831;SDS011;2430;51.322;7.864;2022-07-23T04:02:44;5.13;;;4.73;;
4831;SDS011;2430;51.322;7.864;2022-07-23T04:05:11;13.53;;;4.90;;
4831;SDS011;2430;51.322;7.864;2022-07-23T04:07:38;12.43;;;4.93;;
4831;SDS011;2430;51.322;7.864;2022-07-23T04:10:05;4.63;;;3.60;;
4831;SDS011;2430;51.322;7.864;2022-07-23T04:12:32;7.67;;;4.37;;
4831;SDS011;2430;51.322;7.864;2022-07-23T04:15:02;5.87;;;3.87;;
4831;SDS011;2430;51.322;7.864;2022-07-23T04:17:29;7.33;;;4.30;;
4831;SDS011;2430;51.322;7.864;2022-07-23T04:19:59;5.67;;;4.47;;
4831;SDS011;2430;51.322;7.864;2022-07-23T04:22:26;4.63;;;4.20;;
4831;SDS011;2430;51.322;7.864;2022-07-23T04:24:53;9.70;;;4.50;;
4831;SDS011;2430;51.322;7.864;2022-07-23T04:27:20;6.80;;;4.97;;
4831;SDS011;2430;51.322;7.864;2022-07-23T04:29:47;4.77;;;4.30;;
4831;SDS011;2430;51.322;7.864;2022-07-23T04:32:16;4.97;;;4.27;;
4831;SDS011;2430;51.322;7.864;2022-07-23T04:34:43;5.03;;;3.67;;
4831;SDS011;2430;51.322;7.864;2022-07-23T04:37:10;4.87;;;3.53;;
4831;SDS011;2430;51.322;7.864;2022-07-23T04:39:37;6.00;;;4.90;;
4831;SDS011;2430;51.322;7.864;2022-07-23T04:42:04;11.77;;;5.10;;
4831;SDS011;2430;51.322;7.864;2022-07-23T04:44:31;3.50;;;3.17;;
4831;SDS011;2430;51.322;7.864;2022-07-23T04:46:58;5.70;;;3.57;;
4831;SDS011;2430;51.322;7.864;2022-07-23T04:49:26;7.90;;;4.13;;
4831;SDS011;2430;51.322;7.864;2022-07-23T04:51:52;5.73;;;4.23;;
4831;SDS011;2430;51.322;7.864;2022-07-23T04:54:19;3.53;;;3.23;;
4831;SDS011;2430;51.322;7.864;2022-07-23T04:56:45;8.10;;;4.80;;
4831;SDS011;2430;51.322;7.864;2022-07-23T04:59:12;6.03;;;5.07;;
4831;SDS011;2430;51.322;7.864;2022-07-23T05:01:38;5.97;;;3.67;;
4831;SDS011;2430;51.322;7.864;2022-07-23T05:04:06;5.60;;;5.03;;
4831;SDS011;2430;51.322;7.864;2022-07-23T05:06:34;5.63;;;3.87;;
4831;SDS011;2430;51.322;7.864;2022-07-23T05:09:01;4.97;;;4.00;;
4831;SDS011;2430;51.322;7.864;2022-07-23T05:11:28;5.13;;;3.40;;
4831;SDS011;2430;51.322;7.864;2022-07-23T05:13:54;3.70;;;3.40;;
4831;SDS011;2430;51.322;7.864;2022-07-23T05:16:21;4.03;;;3.67;;
4831;SDS011;2430;51.322;7.864;2022-07-23T05:18:47;3.80;;;2.77;;
4831;SDS011;2430;51.322;7.864;2022-07-23T05:21:14;4.53;;;4.13;;
4831;SDS011;2430;51.322;7.864;2022-07-23T05:23:42;5.13;;;4.17;;
4831;SDS011;2430;51.322;7.864;2022-07-23T05:26:08;3.57;;;3.27;;
4831;SDS011;2430;51.322;7.864;2022-07-23T05:28:35;5.57;;;4.00;;
4831;SDS011;2430;51.322;7.864;2022-07-23T05:31:01;6.50;;;5.00;;
4831;SDS011;2430;51.322;7.864;2022-07-23T05:33:28;7.57;;;3.73;;
4831;SDS011;2430;51.322;7.864;2022-07-23T05:35:59;7.53;;;4.97;;
4831;SDS011;2430;51.322;7.864;2022-07-23T05:38:26;2.63;;;2.03;;
4831;SDS011;2430;51.322;7.864;2022-07-23T05:40:54;2.33;;;2.13;;
4831;SDS011;2430;51.322;7.864;2022-07-23T05:43:20;3.57;;;3.27;;
4831;SDS011;2430;51.322;7.864;2022-07-23T05:45:47;3.20;;;2.93;;
4831;SDS011;2430;51.322;7.864;2022-07-23T05:48:13;5.27;;;3.90;;
4831;SDS011;2430;51.322;7.864;2022-07-23T05:50:40;4.20;;;3.60;;
4831;SDS011;2430;51.322;7.864;2022-07-23T05:53:06;6.30;;;3.70;;
4831;SDS011;2430;51.322;7.864;2022-07-23T05:55:33;2.97;;;2.73;;
4831;SDS011;2430;51.322;7.864;2022-07-23T05:58:01;3.33;;;3.13;;
4831;SDS011;2430;51.322;7.864;2022-07-23T06:00:27;7.43;;;5.07;;
4831;SDS011;2430;51.322;7.864;2022-07-23T06:02:54;5.43;;;3.53;;
4831;SDS011;2430;51.322;7.864;2022-07-23T06:05:21;2.90;;;2.20;;
4831;SDS011;2430;51.322;7.864;2022-07-23T06:07:48;2.97;;;2.40;;
4831;SDS011;2430;51.322;7.864;2022-07-23T06:10:14;2.20;;;2.03;;
4831;SDS011;2430;51.322;7.864;2022-07-23T06:12:41;1.50;;;1.40;;
4831;SDS011;2430;51.322;7.864;2022-07-23T06:15:09;2.70;;;2.50;;
4831;SDS011;2430;51.322;7.864;2022-07-23T06:17:36;3.17;;;2.90;;
4831;SDS011;2430;51.322;7.864;2022-07-23T06:20:04;3.87;;;3.30;;
4831;SDS011;2430;51.322;7.864;2022-07-23T06:22:31;4.33;;;2.60;;
4831;SDS011;2430;51.322;7.864;2022-07-23T06:24:57;7.03;;;3.90;;
4831;SDS011;2430;51.322;7.864;2022-07-23T06:27:24;4.73;;;3.07;;
4831;SDS011;2430;51.322;7.864;2022-07-23T06:29:50;4.77;;;3.10;;
4831;SDS011;2430;51.322;7.864;2022-07-23T06:32:18;2.40;;;2.23;;
4831;SDS011;2430;51.322;7.864;2022-07-23T06:34:45;3.50;;;1.87;;
4831;SDS011;2430;51.322;7.864;2022-07-23T06:37:11;4.23;;;2.83;;
4831;SDS011;2430;51.322;7.864;2022-07-23T06:39:38;6.40;;;4.30;;
4831;SDS011;2430;51.322;7.864;2022-07-23T06:42:04;2.10;;;2.00;;
4831;SDS011;2430;51.322;7.864;2022-07-23T06:44:31;4.50;;;3.60;;
4831;SDS011;2430;51.322;7.864;2022-07-23T06:46:58;2.13;;;2.00;;
4831;SDS011;2430;51.322;7.864;2022-07-23T06:49:25;3.13;;;2.03;;
4831;SDS011;2430;51.322;7.864;2022-07-23T06:51:52;3.00;;;2.73;;
4831;SDS011;2430;51.322;7.864;2022-07-23T06:54:19;6.50;;;3.20;;
4831;SDS011;2430;51.322;7.864;2022-07-23T06:56:45;3.37;;;3.07;;
4831;SDS011;2430;51.322;7.864;2022-07-23T06:59:12;4.50;;;3.10;;
4831;SDS011;2430;51.322;7.864;2022-07-23T07:01:38;2.47;;;2.27;;
4831;SDS011;2430;51.322;7.864;2022-07-23T07:04:05;3.47;;;3.17;;
4831;SDS011;2430;51.322;7.864;2022-07-23T07:06:33;2.07;;;1.93;;
4831;SDS011;2430;51.322;7.864;2022-07-23T07:09:00;3.87;;;2.83;;
4831;SDS011;2430;51.322;7.864;2022-07-23T07:11:27;9.27;;;4.77;;
4831;SDS011;2430;51.322;7.864;2022-07-23T07:13:53;2.73;;;2.53;;
4831;SDS011;2430;51.322;7.864;2022-07-23T07:16:20;3.83;;;2.47;;
4831;SDS011;2430;51.322;7.864;2022-07-23T07:18:46;7.03;;;3.37;;
4831;SDS011;2430;51.322;7.864;2022-07-23T07:21:13;10.27;;;4.90;;
4831;SDS011;2430;51.322;7.864;2022-07-23T07:23:41;9.40;;;3.33;;
4831;SDS011;2430;51.322;7.864;2022-07-23T07:26:08;4.33;;;3.87;;
4831;SDS011;2430;51.322;7.864;2022-07-23T07:28:35;3.77;;;2.83;;
4831;SDS011;2430;51.322;7.864;2022-07-23T07:31:07;6.60;;;4.67;;
4831;SDS011;2430;51.322;7.864;2022-07-23T07:33:34;4.30;;;3.00;;
4831;SDS011;2430;51.322;7.864;2022-07-23T07:36:01;4.70;;;4.27;;
4831;SDS011;2430;51.322;7.864;2022-07-23T07:38:28;6.17;;;4.20;;
4831;SDS011;2430;51.322;7.864;2022-07-23T07:40:56;3.30;;;3.00;;
4831;SDS011;2430;51.322;7.864;2022-07-23T07:43:23;3.13;;;2.43;;
4831;SDS011;2430;51.322;7.864;2022-07-23T07:45:49;7.43;;;3.53;;
4831;SDS011;2430;51.322;7.864;2022-07-23T07:48:16;8.70;;;4.43;;
4831;SDS011;2430;51.322;7.864;2022-07-23T07:50:42;7.20;;;3.60;;
4831;SDS011;2430;51.322;7.864;2022-07-23T07:53:09;9.13;;;3.40;;
4831;SDS011;2430;51.322;7.864;2022-07-23T07:55:36;6.57;;;3.57;;
4831;SDS011;2430;51.322;7.864;2022-07-23T07:58:04;3.67;;;2.77;;
4831;SDS011;2430;51.322;7.864;2022-07-23T08:00:31;3.33;;;3.00;;
4831;SDS011;2430;51.322;7.864;2022-07-23T08:02:58;6.63;;;3.60;;
4831;SDS011;2430;51.322;7.864;2022-07-23T08:05:25;8.63;;;4.50;;
4831;SDS011;2430;51.322;7.864;2022-07-23T08:07:52;3.93;;;3.53;;
4831;SDS011;2430;51.322;7.864;2022-07-23T08:10:19;4.17;;;3.27;;
4831;SDS011;2430;51.322;7.864;2022-07-23T08:12:46;7.33;;;2.47;;
4831;SDS011;2430;51.322;7.864;2022-07-23T08:15:15;5.00;;;2.33;;
4831;SDS011;2430;51.322;7.864;2022-07-23T08:17:41;6.33;;;3.20;;
4831;SDS011;2430;51.322;7.864;2022-07-23T08:20:08;3.60;;;2.87;;
4831;SDS011;2430;51.322;7.864;2022-07-23T08:22:45;4.77;;;3.83;;
4831;SDS011;2430;51.322;7.864;2022-07-23T08:25:12;3.50;;;2.47;;
4831;SDS011;2430;51.322;7.864;2022-07-23T08:27:39;3.63;;;2.20;;
4831;SDS011;2430;51.322;7.864;2022-07-23T08:30:06;3.17;;;2.87;;
4831;SDS011;2430;51.322;7.864;2022-07-23T08:32:35;2.63;;;2.30;;
4831;SDS011;2430;51.322;7.864;2022-07-23T08:35:13;7.53;;;4.00;;
4831;SDS011;2430;51.322;7.864;2022-07-23T08:37:40;2.93;;;2.70;;
4831;SDS011;2430;51.322;7.864;2022-07-23T08:40:07;6.30;;;3.80;;
4831;SDS011;2430;51.322;7.864;2022-07-23T08:42:33;4.33;;;3.53;;
4831;SDS011;2430;51.322;7.864;2022-07-23T08:45:02;2.40;;;2.20;;
4831;SDS011;2430;51.322;7.864;2022-07-23T08:47:28;6.03;;;3.40;;
4831;SDS011;2430;51.322;7.864;2022-07-23T08:49:57;11.20;;;3.93;;
4831;SDS011;2430;51.322;7.864;2022-07-23T08:52:25;20.07;;;5.57;;
4831;SDS011;2430;51.322;7.864;2022-07-23T08:54:52;7.93;;;4.67;;
4831;SDS011;2430;51.322;7.864;2022-07-23T08:57:19;3.90;;;3.00;;
4831;SDS011;2430;51.322;7.864;2022-07-23T08:59:46;6.63;;;3.70;;
4831;SDS011;2430;51.322;7.864;2022-07-23T09:02:13;10.67;;;2.40;;
4831;SDS011;2430;51.322;7.864;2022-07-23T09:04:39;3.87;;;3.57;;
4831;SDS011;2430;51.322;7.864;2022-07-23T09:07:07;8.67;;;4.00;;
4831;SDS011;2430;51.322;7.864;2022-07-23T09:09:34;3.23;;;2.77;;
4831;SDS011;2430;51.322;7.864;2022-07-23T09:12:04;2.90;;;2.70;;
4831;SDS011;2430;51.322;7.864;2022-07-23T09:14:38;3.37;;;3.03;;
4831;SDS011;2430;51.322;7.864;2022-07-23T09:17:09;2.80;;;2.60;;
4831;SDS011;2430;51.322;7.864;2022-07-23T09:19:37;4.30;;;2.43;;
4831;SDS011;2430;51.322;7.864;2022-07-23T09:22:18;4.47;;;2.73;;
4831;SDS011;2430;51.322;7.864;2022-07-23T09:27:26;6.43;;;2.70;;
4831;SDS011;2430;51.322;7.864;2022-07-23T09:30:10;4.17;;;2.00;;
4831;SDS011;2430;51.322;7.864;2022-07-23T09:32:37;2.53;;;1.90;;
4831;SDS011;2430;51.322;7.864;2022-07-23T09:35:05;5.70;;;3.27;;
4831;SDS011;2430;51.322;7.864;2022-07-23T09:37:33;3.13;;;2.30;;
4831;SDS011;2430;51.322;7.864;2022-07-23T09:40:03;4.87;;;2.10;;
4831;SDS011;2430;51.322;7.864;2022-07-23T09:42:29;2.00;;;1.47;;
4831;SDS011;2430;51.322;7.864;2022-07-23T09:44:56;13.73;;;2.83;;
4831;SDS011;2430;51.322;7.864;2022-07-23T09:47:24;3.23;;;2.00;;
4831;SDS011;2430;51.322;7.864;2022-07-23T09:49:58;3.83;;;2.20;;
4831;SDS011;2430;51.322;7.864;2022-07-23T09:52:25;2.37;;;2.17;;
4831;SDS011;2430;51.322;7.864;2022-07-23T09:54:57;2.07;;;1.87;;
4831;SDS011;2430;51.322;7.864;2022-07-23T09:57:23;2.90;;;1.80;;
4831;SDS011;2430;51.322;7.864;2022-07-23T09:59:50;1.50;;;1.40;;
4831;SDS011;2430;51.322;7.864;2022-07-23T10:02:17;5.00;;;2.77;;
4831;SDS011;2430;51.322;7.864;2022-07-23T10:04:44;3.80;;;2.80;;
4831;SDS011;2430;51.322;7.864;2022-07-23T10:07:11;1.50;;;1.40;;
4831;SDS011;2430;51.322;7.864;2022-07-23T10:09:38;3.40;;;2.83;;
4831;SDS011;2430;51.322;7.864;2022-07-23T10:12:09;2.73;;;2.50;;
4831;SDS011;2430;51.322;7.864;2022-07-23T10:14:52;3.20;;;2.90;;
4831;SDS011;2430;51.322;7.864;2022-07-23T10:17:18;4.00;;;2.40;;
4831;SDS011;2430;51.322;7.864;2022-07-23T10:19:45;2.30;;;2.03;;
4831;SDS011;2430;51.322;7.864;2022-07-23T10:22:12;4.77;;;2.77;;
4831;SDS011;2430;51.322;7.864;2022-07-23T10:24:42;3.20;;;2.60;;
4831;SDS011;2430;51.322;7.864;2022-07-23T10:27:19;3.80;;;1.83;;
4831;SDS011;2430;51.322;7.864;2022-07-23T10:29:47;1.90;;;1.73;;
4831;SDS011;2430;51.322;7.864;2022-07-23T10:32:17;6.27;;;2.77;;
4831;SDS011;2430;51.322;7.864;2022-07-23T10:34:49;5.37;;;2.27;;
4831;SDS011;2430;51.322;7.864;2022-07-23T10:37:23;3.23;;;2.53;;
4831;SDS011;2430;51.322;7.864;2022-07-23T10:42:35;7.60;;;2.23;;
4831;SDS011;2430;51.322;7.864;2022-07-23T10:45:03;2.77;;;2.47;;
4831;SDS011;2430;51.322;7.864;2022-07-23T10:47:47;5.90;;;2.83;;
4831;SDS011;2430;51.322;7.864;2022-07-23T10:50:22;4.87;;;2.40;;
4831;SDS011;2430;51.322;7.864;2022-07-23T10:53:08;4.80;;;3.50;;
4831;SDS011;2430;51.322;7.864;2022-07-23T10:55:41;3.63;;;2.27;;
4831;SDS011;2430;51.322;7.864;2022-07-23T10:58:09;6.03;;;3.40;;
4831;SDS011;2430;51.322;7.864;2022-07-23T11:00:35;3.30;;;2.73;;
4831;SDS011;2430;51.322;7.864;2022-07-23T11:03:03;3.43;;;2.57;;
4831;SDS011;2430;51.322;7.864;2022-07-23T11:05:39;2.90;;;2.67;;
4831;SDS011;2430;51.322;7.864;2022-07-23T11:08:11;3.27;;;2.97;;
4831;SDS011;2430;51.322;7.864;2022-07-23T11:10:41;2.40;;;1.73;;
4831;SDS011;2430;51.322;7.864;2022-07-23T11:16:10;4.13;;;2.80;;
4831;SDS011;2430;51.322;7.864;2022-07-23T11:24:05;5.20;;;2.70;;
4831;SDS011;2430;51.322;7.864;2022-07-23T11:26:45;3.37;;;2.70;;
4831;SDS011;2430;51.322;7.864;2022-07-23T11:32:01;4.40;;;3.80;;
4831;SDS011;2430;51.322;7.864;2022-07-23T11:34:29;3.03;;;2.70;;
4831;SDS011;2430;51.322;7.864;2022-07-23T11:36:56;4.73;;;3.43;;
4831;SDS011;2430;51.322;7.864;2022-07-23T11:39:24;3.33;;;2.50;;
4831;SDS011;2430;51.322;7.864;2022-07-23T11:41:51;6.80;;;4.30;;
4831;SDS011;2430;51.322;7.864;2022-07-23T11:44:24;3.57;;;3.20;;
4831;SDS011;2430;51.322;7.864;2022-07-23T11:46:54;4.60;;;2.70;;
4831;SDS011;2430;51.322;7.864;2022-07-23T11:49:23;10.67;;;3.83;;
4831;SDS011;2430;51.322;7.864;2022-07-23T11:52:02;3.87;;;3.17;;
4831;SDS011;2430;51.322;7.864;2022-07-23T11:54:29;3.03;;;2.77;;
4831;SDS011;2430;51.322;7.864;2022-07-23T11:56:55;4.40;;;3.80;;
4831;SDS011;2430;51.322;7.864;2022-07-23T11:59:22;4.97;;;3.10;;
4831;SDS011;2430;51.322;7.864;2022-07-23T12:01:56;4.97;;;2.70;;
4831;SDS011;2430;51.322;7.864;2022-07-23T12:04:29;2.73;;;2.13;;
4831;SDS011;2430;51.322;7.864;2022-07-23T12:07:02;5.10;;;3.27;;
4831;SDS011;2430;51.322;7.864;2022-07-23T12:09:29;3.40;;;2.20;;
4831;SDS011;2430;51.322;7.864;2022-07-23T12:11:56;3.23;;;2.50;;
4831;SDS011;2430;51.322;7.864;2022-07-23T12:14:23;2.60;;;2.00;;
4831;SDS011;2430;51.322;7.864;2022-07-23T12:19:32;6.70;;;3.17;;
4831;SDS011;2430;51.322;7.864;2022-07-23T12:21:59;2.27;;;2.00;;
4831;SDS011;2430;51.322;7.864;2022-07-23T12:24:26;3.37;;;2.10;;
4831;SDS011;2430;51.322;7.864;2022-07-23T12:27:08;5.80;;;2.90;;
4831;SDS011;2430;51.322;7.864;2022-07-23T12:29:35;2.93;;;2.53;;
4831;SDS011;2430;51.322;7.864;2022-07-23T12:32:01;2.93;;;2.13;;
4831;SDS011;2430;51.322;7.864;2022-07-23T12:34:28;2.20;;;2.00;;
4831;SDS011;2430;51.322;7.864;2022-07-23T12:36:56;4.47;;;2.00;;
4831;SDS011;2430;51.322;7.864;2022-07-23T12:39:31;2.13;;;1.80;;
4831;SDS011;2430;51.322;7.864;2022-07-23T12:41:58;2.07;;;1.53;;
4831;SDS011;2430;51.322;7.864;2022-07-23T12:44:25;2.17;;;1.83;;
4831;SDS011;2430;51.322;7.864;2022-07-23T12:46:52;3.43;;;2.60;;
4831;SDS011;2430;51.322;7.864;2022-07-23T12:49:24;1.97;;;1.70;;
4831;SDS011;2430;51.322;7.864;2022-07-23T12:51:51;1.77;;;1.60;;
4831;SDS011;2430;51.322;7.864;2022-07-23T12:54:26;1.50;;;1.40;;
4831;SDS011;2430;51.322;7.864;2022-07-23T12:56:53;1.87;;;1.77;;
4831;SDS011;2430;51.322;7.864;2022-07-23T12:59:20;2.30;;;2.00;;
4831;SDS011;2430;51.322;7.864;2022-07-23T13:01:53;2.20;;;2.00;;
4831;SDS011;2430;51.322;7.864;2022-07-23T13:04:20;1.87;;;1.77;;
4831;SDS011;2430;51.322;7.864;2022-07-23T13:06:48;9.93;;;1.53;;
4831;SDS011;2430;51.322;7.864;2022-07-23T13:09:26;1.43;;;1.33;;
4831;SDS011;2430;51.322;7.864;2022-07-23T13:11:53;1.83;;;1.70;;
4831;SDS011;2430;51.322;7.864;2022-07-23T13:14:20;1.33;;;1.13;;
4831;SDS011;2430;51.322;7.864;2022-07-23T13:16:47;2.60;;;1.90;;
4831;SDS011;2430;51.322;7.864;2022-07-23T13:19:14;1.83;;;1.37;;
4831;SDS011;2430;51.322;7.864;2022-07-23T13:21:41;1.57;;;1.47;;
4831;SDS011;2430;51.322;7.864;2022-07-23T13:24:08;1.20;;;1.10;;
4831;SDS011;2430;51.322;7.864;2022-07-23T13:26:36;1.20;;;1.10;;
4831;SDS011;2430;51.322;7.864;2022-07-23T13:29:03;1.30;;;1.20;;
4831;SDS011;2430;51.322;7.864;2022-07-23T13:31:29;1.53;;;1.40;;
4831;SDS011;2430;51.322;7.864;2022-07-23T13:33:56;1.27;;;1.03;;
4831;SDS011;2430;51.322;7.864;2022-07-23T13:36:22;1.13;;;1.03;;
4831;SDS011;2430;51.322;7.864;2022-07-23T13:38:49;2.43;;;1.33;;
4831;SDS011;2430;51.322;7.864;2022-07-23T13:41:16;1.17;;;1.07;;
4831;SDS011;2430;51.322;7.864;2022-07-23T13:43:44;1.20;;;1.10;;
4831;SDS011;2430;51.322;7.864;2022-07-23T13:46:10;2.60;;;1.67;;
4831;SDS011;2430;51.322;7.864;2022-07-23T13:48:37;0.97;;;0.80;;
4831;SDS011;2430;51.322;7.864;2022-07-23T13:51:03;1.20;;;1.10;;
4831;SDS011;2430;51.322;7.864;2022-07-23T13:53:30;1.70;;;1.30;;
4831;SDS011;2430;51.322;7.864;2022-07-23T13:55:56;1.30;;;1.20;;
4831;SDS011;2430;51.322;7.864;2022-07-23T13:58:23;2.07;;;1.63;;
4831;SDS011;2430;51.322;7.864;2022-07-23T14:00:52;1.50;;;1.37;;
4831;SDS011;2430;51.322;7.864;2022-07-23T14:03:19;1.23;;;1.13;;
4831;SDS011;2430;51.322;7.864;2022-07-23T14:05:47;1.53;;;1.43;;
4831;SDS011;2430;51.322;7.864;2022-07-23T14:08:14;2.40;;;1.23;;
4831;SDS011;2430;51.322;7.864;2022-07-23T14:10:40;1.70;;;1.60;;
4831;SDS011;2430;51.322;7.864;2022-07-23T14:13:07;1.20;;;1.10;;
4831;SDS011;2430;51.322;7.864;2022-07-23T14:15:34;1.53;;;1.00;;
4831;SDS011;2430;51.322;7.864;2022-07-23T14:18:02;1.43;;;1.33;;
4831;SDS011;2430;51.322;7.864;2022-07-23T14:20:28;3.03;;;1.63;;
4831;SDS011;2430;51.322;7.864;2022-07-23T14:22:55;1.60;;;1.50;;
4831;SDS011;2430;51.322;7.864;2022-07-23T14:25:23;1.73;;;1.60;;
4831;SDS011;2430;51.322;7.864;2022-07-23T14:27:49;2.20;;;2.00;;
4831;SDS011;2430;51.322;7.864;2022-07-23T14:30:16;1.67;;;1.57;;
4831;SDS011;2430;51.322;7.864;2022-07-23T14:32:42;2.60;;;1.90;;
4831;SDS011;2430;51.322;7.864;2022-07-23T14:35:10;1.17;;;1.07;;
4831;SDS011;2430;51.322;7.864;2022-07-23T14:37:38;2.20;;;1.60;;
4831;SDS011;2430;51.322;7.864;2022-07-23T14:40:05;2.07;;;1.13;;
4831;SDS011;2430;51.322;7.864;2022-07-23T14:42:32;1.20;;;1.10;;
4831;SDS011;2430;51.322;7.864;2022-07-23T14:44:58;2.17;;;1.50;;
4831;SDS011;2430;51.322;7.864;2022-07-23T14:47:25;1.27;;;1.17;;
4831;SDS011;2430;51.322;7.864;2022-07-23T14:49:51;3.27;;;1.53;;
4831;SDS011;2430;51.322;7.864;2022-07-23T14:52:19;2.10;;;1.47;;
4831;SDS011;2430;51.322;7.864;2022-07-23T14:54:46;1.20;;;0.97;;
4831;SDS011;2430;51.322;7.864;2022-07-23T14:57:13;1.43;;;1.10;;
4831;SDS011;2430;51.322;7.864;2022-07-23T14:59:40;1.20;;;1.10;;
4831;SDS011;2430;51.322;7.864;2022-07-23T15:02:07;1.57;;;1.40;;
4831;SDS011;2430;51.322;7.864;2022-07-23T15:04:34;4.00;;;1.90;;
4831;SDS011;2430;51.322;7.864;2022-07-23T15:07:00;1.87;;;1.37;;
4831;SDS011;2430;51.322;7.864;2022-07-23T15:09:28;1.27;;;1.17;;
4831;SDS011;2430;51.322;7.864;2022-07-23T15:11:55;1.37;;;1.27;;
4831;SDS011;2430;51.322;7.864;2022-07-23T15:14:21;1.00;;;1.00;;
4831;SDS011;2430;51.322;7.864;2022-07-23T15:16:48;9.13;;;1.80;;
4831;SDS011;2430;51.322;7.864;2022-07-23T15:19:14;1.40;;;1.27;;
4831;SDS011;2430;51.322;7.864;2022-07-23T15:21:41;1.33;;;1.23;;
4831;SDS011;2430;51.322;7.864;2022-07-23T15:24:07;1.10;;;1.00;;
4831;SDS011;2430;51.322;7.864;2022-07-23T15:26:35;1.23;;;1.13;;
4831;SDS011;2430;51.322;7.864;2022-07-23T15:29:02;1.20;;;1.10;;
4831;SDS011;2430;51.322;7.864;2022-07-23T15:31:31;1.40;;;1.30;;
4831;SDS011;2430;51.322;7.864;2022-07-23T15:33:57;2.30;;;1.40;;
4831;SDS011;2430;51.322;7.864;2022-07-23T15:36:24;6.13;;;2.10;;